createdAt,value
2023-04-08T00:02:03.962Z,5.00
2023-04-08T00:07:08.768Z,4.75
2023-04-08T00:12:14.568Z,4.75
2023-04-08T00:17:19.539Z,4.00
2023-04-08T00:22:24.282Z,5.25
2023-04-08T00:27:28.956Z,4.00
2023-04-08T00:32:34.221Z,3.75
2023-04-08T00:37:39.421Z,5.00
2023-04-08T00:42:44.194Z,5.75
2023-04-08T00:47:53.731Z,4.75
2023-04-08T00:52:58.823Z,4.25
2023-04-08T00:58:04.396Z,3.00
2023-04-08T01:03:09.893Z,4.50
2023-04-08T01:08:15.922Z,4.00
2023-04-08T01:13:21.679Z,4.75
2023-04-08T01:18:27.327Z,4.75
2023-04-08T01:23:50.044Z,5.00
2023-04-08T01:28:59.617Z,7.75
2023-04-08T01:34:05.974Z,7.25
2023-04-08T01:39:11.227Z,4.50
2023-04-08T01:44:17.288Z,5.75
2023-04-08T01:49:22.641Z,7.25
2023-04-08T01:54:27.156Z,5.00
2023-04-08T01:59:33.790Z,6.75
2023-04-08T02:04:38.440Z,3.50
2023-04-08T02:09:43.628Z,6.50
2023-04-08T02:14:48.456Z,3.00
2023-04-08T02:20:04.664Z,5.00
2023-04-08T02:25:11.065Z,4.25
2023-04-08T02:30:17.546Z,3.50
2023-04-08T02:35:22.280Z,4.25
2023-04-08T02:40:30.788Z,2.75
2023-04-08T02:45:38.004Z,4.50
2023-04-08T02:50:42.375Z,3.50
2023-04-08T02:55:46.670Z,4.00
2023-04-08T03:00:52.439Z,5.25
2023-04-08T03:05:57.437Z,5.00
2023-04-08T03:11:01.600Z,5.50
2023-04-08T03:16:08.870Z,4.00
2023-04-08T03:21:12.997Z,3.50
2023-04-08T03:26:17.120Z,2.00
2023-04-08T03:31:22.483Z,4.50
2023-04-08T03:36:27.935Z,2.50
2023-04-08T03:41:32.458Z,6.25
2023-04-08T03:46:36.630Z,4.50
2023-04-08T03:51:42.440Z,6.00
2023-04-08T03:56:46.774Z,2.00
2023-04-08T04:01:52.475Z,4.50
2023-04-08T04:06:57.391Z,3.00
2023-04-08T04:12:01.805Z,3.00
2023-04-08T04:17:06.073Z,3.25
2023-04-08T04:22:10.110Z,3.25
2023-04-08T04:27:14.272Z,3.75
2023-04-08T04:32:18.837Z,3.00
2023-04-08T04:37:23.949Z,3.25
2023-04-08T04:42:28.192Z,2.00
2023-04-08T04:47:33.795Z,7.00
2023-04-08T04:52:39.437Z,4.75
2023-04-08T04:57:45.571Z,2.75
2023-04-08T05:02:49.960Z,4.50
2023-04-08T05:07:55.036Z,3.00
2023-04-08T05:12:59.213Z,4.00
2023-04-08T05:18:03.441Z,1.00
2023-04-08T05:23:09.078Z,2.25
2023-04-08T05:28:13.596Z,1.50
2023-04-08T05:33:18.135Z,3.00
2023-04-08T05:38:22.989Z,2.25
2023-04-08T05:43:27.297Z,2.50
2023-04-08T05:48:32.009Z,3.50
2023-04-08T05:53:36.154Z,2.00
2023-04-08T05:58:41.157Z,1.00
2023-04-08T06:03:45.685Z,2.00
2023-04-08T06:08:50.285Z,1.75
2023-04-08T06:13:55.755Z,0.75
2023-04-08T06:19:00.275Z,3.00
2023-04-08T06:24:04.540Z,2.00
2023-04-08T06:29:09.384Z,1.75
2023-04-08T06:34:13.625Z,1.50
2023-04-08T06:39:18.237Z,1.75
2023-04-08T06:44:22.481Z,2.00
2023-04-08T06:49:28.318Z,3.50
2023-04-08T06:54:32.469Z,2.75
2023-04-08T06:59:38.055Z,1.50
2023-04-08T07:04:45.512Z,3.00
2023-04-08T07:09:51.330Z,2.75
2023-04-08T07:14:56.631Z,2.50
2023-04-08T07:20:01.049Z,2.25
2023-04-08T07:25:08.804Z,3.25
2023-04-08T07:30:13.167Z,2.25
2023-04-08T07:35:25.123Z,4.00
2023-04-08T07:40:29.389Z,1.75
2023-04-08T07:45:34.164Z,3.00
2023-04-08T07:51:09.332Z,1.00
2023-04-08T07:56:05.512Z,2.00
2023-04-08T08:01:23.370Z,1.00
2023-04-08T08:06:28.853Z,3.25
2023-04-08T08:11:34.194Z,3.25
2023-04-08T08:16:39.872Z,0.25
2023-04-08T08:21:44.192Z,2.50
2023-04-08T08:26:50.412Z,2.00
2023-04-08T08:31:54.813Z,2.00
2023-04-08T08:36:59.681Z,1.00
2023-04-08T08:42:04.165Z,1.50
2023-04-08T08:47:08.545Z,1.75
2023-04-08T08:52:12.952Z,1.00
2023-04-08T08:57:23.748Z,1.75
2023-04-08T09:02:29.392Z,4.25
2023-04-08T09:07:38.209Z,1.50
2023-04-08T09:13:08.694Z,2.00
2023-04-08T09:18:41.794Z,1.00
2023-04-08T09:23:50.473Z,1.25
2023-04-08T09:29:14.786Z,1.75
2023-04-08T09:34:30.636Z,1.00
2023-04-08T09:39:35.057Z,2.50
2023-04-08T09:44:39.914Z,3.75
2023-04-08T09:49:51.773Z,1.50
2023-04-08T09:55:05.295Z,1.00
2023-04-08T10:00:09.798Z,3.00
2023-04-08T10:05:20.135Z,1.00
2023-04-08T10:10:24.764Z,2.00
2023-04-08T10:15:42.174Z,2.25
2023-04-08T10:20:50.446Z,1.75
2023-04-08T10:25:54.687Z,2.75
2023-04-08T10:30:59.482Z,1.50
2023-04-08T10:36:13.610Z,1.25
2023-04-08T10:41:26.681Z,3.25
2023-04-08T10:46:31.257Z,4.00
2023-04-08T10:51:38.646Z,1.75
2023-04-08T10:56:48.061Z,2.75
2023-04-08T11:01:53.968Z,1.00
2023-04-08T11:06:59.506Z,1.75
2023-04-08T11:12:04.999Z,0.75
2023-04-08T11:17:10.735Z,1.75
2023-04-08T11:22:15.780Z,2.00
2023-04-08T11:27:21.068Z,4.00
2023-04-08T11:32:26.681Z,3.25
2023-04-08T11:37:42.392Z,5.00
2023-04-08T11:42:47.563Z,2.25
2023-04-08T11:47:52.880Z,4.00
2023-04-08T11:52:58.323Z,1.25
2023-04-08T11:58:08.975Z,2.25
2023-04-08T12:03:14.766Z,6.25
2023-04-08T12:08:19.866Z,2.25
2023-04-08T12:13:24.658Z,4.00
2023-04-08T12:18:29.492Z,3.75
2023-04-08T12:23:34.533Z,1.50
2023-04-08T12:28:40.104Z,3.50
2023-04-08T12:33:45.956Z,3.25
2023-04-08T12:38:50.908Z,2.25
2023-04-08T12:43:55.671Z,2.75
2023-04-08T12:49:04.205Z,4.25
2023-04-08T12:54:10.128Z,4.00
2023-04-08T12:59:15.076Z,4.50
2023-04-08T13:04:21.165Z,3.75
2023-04-08T13:09:26.273Z,5.25
2023-04-08T13:14:31.808Z,3.25
2023-04-08T13:19:36.821Z,3.75
2023-04-08T13:24:41.530Z,3.25
2023-04-08T13:29:46.395Z,5.25
2023-04-08T13:34:51.143Z,4.75
2023-04-08T13:39:58.109Z,4.00
2023-04-08T13:45:03.010Z,6.00
2023-04-08T13:50:09.084Z,3.50
2023-04-08T13:55:13.966Z,3.50
2023-04-08T14:00:19.107Z,5.75
2023-04-08T14:05:24.206Z,5.75
2023-04-08T14:10:29.646Z,4.50
2023-04-08T14:15:34.384Z,4.00
2023-04-08T14:20:39.189Z,3.25
2023-04-08T14:25:44.127Z,6.25
2023-04-08T14:30:49.174Z,3.00
2023-04-08T14:35:55.450Z,3.25
2023-04-08T14:41:01.595Z,4.50
2023-04-08T14:46:05.905Z,5.25
2023-04-08T14:51:10.849Z,6.25
2023-04-08T14:56:16.008Z,4.00
2023-04-08T15:01:21.375Z,4.75
2023-04-08T15:06:31.342Z,4.00
2023-04-08T15:11:36.434Z,4.00
2023-04-08T15:16:40.608Z,4.00
2023-04-08T15:21:45.069Z,4.50
2023-04-08T15:26:49.833Z,3.25
2023-04-08T15:31:54.770Z,4.25
2023-04-08T15:36:59.830Z,3.50
2023-04-08T15:42:04.814Z,4.50
2023-04-08T15:47:10.854Z,4.50
2023-04-08T15:52:15.588Z,3.75
2023-04-08T15:57:20.335Z,5.00
2023-04-08T16:02:25.482Z,6.25
2023-04-08T16:07:30.319Z,7.75
2023-04-08T16:12:35.694Z,5.75
2023-04-08T16:17:40.542Z,4.00
2023-04-08T16:22:45.247Z,5.50
2023-04-08T16:27:50.412Z,5.25
2023-04-08T16:32:55.200Z,2.00
2023-04-08T16:38:00.643Z,4.75
2023-04-08T16:43:06.736Z,6.50
2023-04-08T16:48:11.453Z,5.25
2023-04-08T16:53:19.308Z,4.75
2023-04-08T16:58:24.516Z,6.00
2023-04-08T17:03:29.394Z,6.00
2023-04-08T17:08:35.591Z,3.00
2023-04-08T17:13:41.800Z,7.00
2023-04-08T17:18:47.096Z,5.00
2023-04-08T17:23:53.228Z,4.75
2023-04-08T17:28:58.618Z,5.25
2023-04-08T17:34:03.652Z,5.00
2023-04-08T17:39:08.417Z,4.25
2023-04-08T17:44:13.182Z,4.25
2023-04-08T17:49:18.925Z,5.00
2023-04-08T17:54:24.005Z,6.25
2023-04-08T17:59:29.085Z,5.00
2023-04-08T18:04:34.367Z,4.00
2023-04-08T18:09:39.057Z,6.00
2023-04-08T18:14:43.700Z,6.75
2023-04-08T18:19:48.521Z,4.00
2023-04-08T18:24:53.400Z,5.50
2023-04-08T18:29:58.217Z,7.50
2023-04-08T18:35:03.247Z,6.75
2023-04-08T18:40:08.931Z,7.25
2023-04-08T18:45:13.758Z,7.00
2023-04-08T18:50:18.549Z,7.00
2023-04-08T18:55:23.259Z,5.00
2023-04-08T19:00:28.126Z,8.00
2023-04-08T19:05:34.286Z,5.00
2023-04-08T19:10:39.058Z,6.00
2023-04-08T19:15:44.402Z,5.25
2023-04-08T19:20:49.510Z,7.00
2023-04-08T19:25:54.341Z,7.00
2023-04-08T19:30:59.224Z,7.00
2023-04-08T19:36:04.287Z,7.00
2023-04-08T19:41:10.326Z,5.00
2023-04-08T19:46:15.227Z,6.00
2023-04-08T19:51:23.764Z,6.75
2023-04-08T19:56:35.010Z,6.00
2023-04-08T20:01:40.955Z,6.75
2023-04-08T20:06:46.886Z,6.75
2023-04-08T20:11:51.825Z,8.00
2023-04-08T20:16:56.920Z,9.00
2023-04-08T20:22:02.967Z,6.50
2023-04-08T20:27:08.011Z,7.25
2023-04-08T20:32:13.834Z,6.75
2023-04-08T20:37:19.603Z,8.75
2023-04-08T20:42:24.309Z,7.50
2023-04-08T20:47:29.031Z,6.50
2023-04-08T20:52:34.032Z,8.25
2023-04-08T20:57:39.785Z,6.00
2023-04-08T21:02:45.270Z,6.75
2023-04-08T21:07:50.167Z,7.75
2023-04-08T21:12:54.786Z,7.75
2023-04-08T21:17:59.797Z,9.75
2023-04-08T21:23:04.665Z,6.00
2023-04-08T21:28:09.591Z,10.00
2023-04-08T21:33:14.746Z,8.25
2023-04-08T21:38:19.350Z,10.25
2023-04-08T21:43:24.026Z,12.00
2023-04-08T21:48:28.871Z,7.75
2023-04-08T21:53:33.603Z,9.25
2023-04-08T21:58:38.323Z,10.50
2023-04-08T22:03:43.076Z,9.25
2023-04-08T22:08:47.998Z,7.25
2023-04-08T22:13:53.099Z,9.00
2023-04-08T22:18:57.678Z,11.25
2023-04-08T22:24:02.567Z,8.50
2023-04-08T22:29:07.511Z,9.00
2023-04-08T22:34:12.297Z,10.00
2023-04-08T22:39:17.238Z,13.50
2023-04-08T22:44:22.050Z,10.00
2023-04-08T22:49:26.796Z,10.25
2023-04-08T22:54:31.724Z,8.75
2023-04-08T22:59:37.664Z,9.25
2023-04-08T23:04:43.126Z,8.00
2023-04-08T23:09:48.150Z,11.75
2023-04-08T23:14:52.991Z,10.00
2023-04-08T23:19:57.911Z,14.00
2023-04-08T23:25:02.751Z,12.00
2023-04-08T23:30:08.117Z,12.50
2023-04-08T23:35:12.877Z,11.25
2023-04-08T23:40:18.721Z,10.00
2023-04-08T23:45:23.341Z,11.00
2023-04-08T23:50:28.460Z,10.50
2023-04-08T23:55:33.238Z,10.00
